Time;durP1;ratioP1;P1;durP2;ratioP2;P2;SDS_P1;SDS_P2;PMS_P1;PMS_P2;Temp;Humidity;BMP_temperature;BMP_pressure;BME280_temperature;BME280_humidity;BME280_pressure;Samples;Min_cycle;Max_cycle;Signal;HPM_P1;HPM_P2
2022/01/26 00:06:41;;;;;;;7.27;2.63;;;3.40;99.90;;;;;;9954741;29;20291;-80
2022/01/26 00:12:03;;;;;;;4.53;2.57;;;3.40;99.90;;;;;;9960988;29;20222;-78
2022/01/26 00:17:25;;;;;;;14.10;2.80;;;3.40;99.90;;;;;;9942359;29;20217;-81
2022/01/26 00:28:33;;;;;;;11.87;3.20;;;3.40;99.90;;;;;;9952107;29;20217;-78
2022/01/26 00:39:33;;;;;;;7.03;2.70;;;3.30;99.90;;;;;;10007116;29;20416;-77
2022/01/26 00:44:55;;;;;;;5.37;2.13;;;3.30;99.90;;;;;;10006510;29;20228;-80
2022/01/26 00:50:17;;;;;;;6.47;2.40;;;3.20;99.90;;;;;;9990945;29;20210;-79
2022/01/26 00:55:39;;;;;;;9.67;2.67;;;3.20;99.90;;;;;;9978667;29;20211;-80
2022/01/26 01:01:03;;;;;;;5.73;2.63;;;3.30;99.90;;;;;;9981125;29;20196;-79
2022/01/26 01:06:29;;;;;;;9.20;2.70;;;3.30;99.90;;;;;;9977500;29;20261;-79
2022/01/26 01:11:56;;;;;;;6.83;2.30;;;3.40;99.90;;;;;;9977835;29;20288;-79
2022/01/26 01:17:24;;;;;;;11.57;2.63;;;3.40;99.90;;;;;;9993013;29;20423;-79
2022/01/26 01:34:10;;;;;;;7.50;2.80;;;3.30;99.90;;;;;;9890248;30;20230;-79
2022/01/26 01:39:34;;;;;;;6.30;2.93;;;3.30;99.90;;;;;;9874896;30;20271;-79
2022/01/26 01:44:55;;;;;;;7.60;2.83;;;3.30;99.90;;;;;;9862706;30;20544;-79
2022/01/26 01:50:17;;;;;;;7.17;2.67;;;3.30;99.90;;;;;;9889723;30;20448;-79
2022/01/26 01:55:41;;;;;;;10.43;3.33;;;3.30;99.90;;;;;;9873982;30;20215;-79
2022/01/26 02:01:04;;;;;;;11.87;2.80;;;3.30;99.90;;;;;;9888655;29;20398;-80
2022/01/26 02:06:27;;;;;;;10.47;3.60;;;3.20;99.90;;;;;;9954254;29;20228;-80
2022/01/26 02:11:52;;;;;;;9.40;3.37;;;3.20;99.90;;;;;;9967093;29;20229;-80
2022/01/26 03:02:09;;;;;;;7.43;3.00;;;3.00;99.90;;;;;;9996558;29;20522;-79
2022/01/26 03:07:44;;;;;;;7.80;3.53;;;3.00;99.90;;;;;;9964235;29;20224;-80
2022/01/26 03:13:15;;;;;;;6.53;2.57;;;3.00;99.90;;;;;;9964796;29;20208;-78
2022/01/26 03:29:53;;;;;;;7.30;2.17;;;2.90;99.90;;;;;;9951752;29;20212;-78
2022/01/26 03:35:18;;;;;;;4.47;2.00;;;2.90;99.90;;;;;;10016664;29;20209;-79
2022/01/26 03:40:42;;;;;;;6.87;2.33;;;2.90;99.90;;;;;;10002768;29;20243;-79
2022/01/26 03:46:04;;;;;;;9.77;2.87;;;2.90;99.90;;;;;;10007808;29;20227;-79
2022/01/26 03:51:27;;;;;;;10.03;2.23;;;2.90;99.90;;;;;;10010427;29;20204;-79
2022/01/26 03:56:49;;;;;;;8.77;2.90;;;2.90;99.90;;;;;;9995229;29;20207;-78
2022/01/26 04:02:10;;;;;;;8.93;2.53;;;2.90;99.90;;;;;;10013025;29;20205;-79
2022/01/26 04:07:33;;;;;;;7.97;2.17;;;2.90;99.90;;;;;;9995346;29;20204;-79
2022/01/26 04:12:55;;;;;;;8.27;2.80;;;2.90;99.90;;;;;;9969908;29;20285;-79
2022/01/26 04:18:22;;;;;;;7.10;1.97;;;2.90;99.90;;;;;;9969740;29;20227;-79
2022/01/26 04:29:12;;;;;;;9.10;2.20;;;2.90;99.90;;;;;;9969437;29;20421;-79
2022/01/26 04:34:35;;;;;;;11.63;2.90;;;3.00;99.90;;;;;;9981368;29;20208;-79
2022/01/26 04:40:00;;;;;;;10.10;2.87;;;3.00;99.90;;;;;;9993724;29;20266;-79
2022/01/26 04:45:22;;;;;;;5.10;3.10;;;3.00;99.90;;;;;;10005856;29;20596;-78
2022/01/26 04:50:46;;;;;;;11.53;4.10;;;3.00;99.90;;;;;;9993821;29;20201;-79
2022/01/26 04:56:13;;;;;;;8.67;3.90;;;3.00;99.90;;;;;;9992245;29;20534;-79
2022/01/26 05:01:35;;;;;;;11.77;3.47;;;3.00;99.90;;;;;;10002928;29;20408;-79
2022/01/26 05:06:57;;;;;;;11.73;3.47;;;3.00;99.90;;;;;;9990340;29;20232;-79
2022/01/26 05:12:19;;;;;;;11.03;3.83;;;3.00;99.90;;;;;;9992461;29;20213;-79
2022/01/26 05:17:41;;;;;;;15.70;6.63;;;3.00;99.90;;;;;;10005476;29;20495;-79
2022/01/26 05:23:04;;;;;;;21.27;10.53;;;3.00;99.90;;;;;;9992295;29;20273;-80
2022/01/26 05:28:26;;;;;;;15.30;9.77;;;3.00;99.90;;;;;;9992533;29;20225;-79
2022/01/26 05:33:48;;;;;;;16.30;8.63;;;3.00;99.90;;;;;;10004541;29;20206;-79
2022/01/26 05:39:10;;;;;;;18.37;10.23;;;3.00;99.90;;;;;;9992235;29;20248;-79
2022/01/26 05:44:32;;;;;;;16.33;7.77;;;3.00;99.90;;;;;;10005424;29;20305;-79
2022/01/26 05:49:54;;;;;;;14.80;7.47;;;3.00;99.90;;;;;;10005298;29;20552;-79
2022/01/26 05:55:16;;;;;;;11.10;8.17;;;3.00;99.90;;;;;;9991100;29;20214;-80
2022/01/26 06:00:38;;;;;;;18.90;10.07;;;3.00;99.90;;;;;;10004301;29;20202;-81
2022/01/26 06:06:00;;;;;;;23.87;11.70;;;2.90;99.90;;;;;;9990428;29;20258;-79
2022/01/26 06:11:22;;;;;;;17.00;8.47;;;3.00;99.90;;;;;;9991800;29;20200;-79
2022/01/26 06:16:44;;;;;;;17.83;8.50;;;3.00;99.90;;;;;;9993070;29;20456;-79
2022/01/26 06:22:06;;;;;;;10.57;5.50;;;3.00;99.90;;;;;;10006359;29;20396;-78
2022/01/26 06:27:28;;;;;;;13.63;7.60;;;3.10;99.90;;;;;;9991988;29;20541;-79
2022/01/26 06:32:55;;;;;;;13.30;8.07;;;3.10;99.90;;;;;;9985760;29;20251;-80
2022/01/26 06:38:17;;;;;;;9.00;5.77;;;3.10;99.90;;;;;;9952937;29;20206;-80
2022/01/26 06:43:53;;;;;;;10.77;5.20;;;3.10;99.90;;;;;;9937307;29;20312;-78
2022/01/26 06:54:46;;;;;;;10.17;5.63;;;3.20;99.90;;;;;;9949493;29;20213;-79
2022/01/26 07:00:10;;;;;;;13.40;6.47;;;3.20;99.90;;;;;;9951916;29;20202;-79
2022/01/26 07:05:32;;;;;;;9.13;6.90;;;3.20;99.90;;;;;;10011998;29;20236;-78
2022/01/26 07:10:54;;;;;;;8.10;5.47;;;3.30;99.90;;;;;;9987051;29;20208;-79
2022/01/26 07:21:56;;;;;;;9.67;5.90;;;3.30;99.90;;;;;;9996100;29;20567;-80
2022/01/26 07:27:18;;;;;;;6.90;4.93;;;3.40;99.90;;;;;;9996041;29;20232;-80
2022/01/26 07:32:40;;;;;;;8.63;5.73;;;3.40;99.90;;;;;;9977619;29;20268;-80
2022/01/26 07:38:04;;;;;;;9.03;5.73;;;3.40;99.90;;;;;;9973364;29;20280;-79
2022/01/26 07:43:26;;;;;;;8.27;4.83;;;3.40;99.90;;;;;;9993254;29;20276;-80
2022/01/26 07:48:48;;;;;;;9.17;5.10;;;3.50;99.90;;;;;;9995295;29;20208;-79
2022/01/26 07:54:10;;;;;;;8.03;4.40;;;3.50;99.90;;;;;;9949563;29;20209;-80
2022/01/26 07:59:32;;;;;;;5.50;4.43;;;3.60;99.90;;;;;;9945253;29;20604;-79
2022/01/26 08:04:54;;;;;;;5.97;4.23;;;3.60;99.90;;;;;;9975244;29;20543;-80
2022/01/26 08:10:16;;;;;;;4.90;3.17;;;3.70;99.90;;;;;;9976946;29;20315;-82
2022/01/26 08:15:38;;;;;;;4.13;2.80;;;3.70;99.90;;;;;;9995387;29;20407;-81
2022/01/26 08:21:06;;;;;;;3.37;2.57;;;3.80;99.90;;;;;;10000879;29;20235;-80
2022/01/26 08:26:39;;;;;;;5.23;1.57;;;3.90;99.90;;;;;;9965842;29;20241;-81
2022/01/26 08:32:01;;;;;;;2.80;2.17;;;3.90;99.90;;;;;;9968451;29;20206;-82
2022/01/26 08:37:23;;;;;;;1.20;1.10;;;4.10;99.90;;;;;;9987841;29;20218;-82
2022/01/26 08:42:45;;;;;;;1.80;1.20;;;4.20;99.90;;;;;;9973764;29;20247;-83
2022/01/26 08:48:15;;;;;;;2.77;2.30;;;4.20;99.90;;;;;;9957336;29;20212;-81
2022/01/26 08:53:37;;;;;;;3.13;1.63;;;4.20;99.90;;;;;;9988270;29;20224;-92
2022/01/26 08:58:59;;;;;;;9.53;4.17;;;4.30;99.90;;;;;;10001721;29;20211;-87
2022/01/26 09:04:23;;;;;;;3.63;2.40;;;4.30;99.90;;;;;;9982074;29;20788;-81
2022/01/26 09:09:46;;;;;;;6.00;3.70;;;4.30;99.90;;;;;;9992666;29;20500;-81
2022/01/26 09:15:10;;;;;;;4.10;1.80;;;4.30;99.90;;;;;;9967289;29;20206;-88
2022/01/26 09:20:38;;;;;;;5.07;2.33;;;4.40;99.90;;;;;;9999586;29;20487;-81
2022/01/26 09:26:00;;;;;;;2.50;1.40;;;4.30;99.90;;;;;;9973840;29;20237;-81
2022/01/26 09:31:22;;;;;;;2.10;1.43;;;4.40;99.90;;;;;;9973212;29;20285;-84
2022/01/26 09:36:45;;;;;;;2.30;1.83;;;4.50;99.90;;;;;;9964555;29;20214;-81
2022/01/26 09:42:07;;;;;;;1.60;0.90;;;4.50;99.90;;;;;;9980316;29;20237;-79
2022/01/26 09:47:29;;;;;;;2.83;1.40;;;4.60;99.90;;;;;;9999613;29;20234;-85
2022/01/26 09:52:59;;;;;;;1.07;0.80;;;4.60;99.90;;;;;;10001730;29;20277;-81
2022/01/26 09:58:21;;;;;;;7.43;2.50;;;4.70;99.90;;;;;;9971072;29;20547;-81
2022/01/26 10:03:46;;;;;;;5.03;2.30;;;4.70;99.90;;;;;;9960140;29;20257;-80
2022/01/26 10:20:52;;;;;;;3.60;2.13;;;4.70;99.90;;;;;;10000989;29;20206;-81
2022/01/26 10:26:18;;;;;;;5.03;1.73;;;4.80;99.90;;;;;;9998562;29;20444;-80
2022/01/26 10:31:40;;;;;;;2.80;1.20;;;4.90;99.90;;;;;;9954243;29;20219;-80
2022/01/26 10:37:04;;;;;;;3.00;1.93;;;4.90;99.90;;;;;;9965742;29;20294;-82
2022/01/26 10:42:27;;;;;;;2.93;2.03;;;4.80;99.90;;;;;;9947836;29;20229;-80
2022/01/26 10:47:49;;;;;;;3.57;2.57;;;4.80;99.90;;;;;;9959497;29;20602;-82
2022/01/26 10:53:15;;;;;;;5.63;2.40;;;4.70;99.90;;;;;;9950806;29;20217;-81
2022/01/26 10:58:37;;;;;;;3.47;1.80;;;4.80;99.90;;;;;;9971503;29;20312;-84
2022/01/26 11:03:59;;;;;;;3.07;1.60;;;4.70;99.90;;;;;;9987402;29;20226;-82
2022/01/26 11:09:25;;;;;;;4.57;2.23;;;4.70;99.90;;;;;;10006690;29;20240;-83
2022/01/26 11:14:56;;;;;;;4.80;2.10;;;4.70;99.90;;;;;;9992338;29;20213;-82
2022/01/26 11:20:28;;;;;;;9.53;4.17;;;4.60;99.90;;;;;;10006676;29;20213;-82
2022/01/26 11:25:50;;;;;;;2.57;1.70;;;4.60;99.90;;;;;;9991713;29;20339;-81
2022/01/26 11:31:16;;;;;;;4.03;2.20;;;4.60;99.90;;;;;;9977060;29;20208;-81
2022/01/26 11:36:49;;;;;;;6.93;2.50;;;4.60;99.90;;;;;;9992268;29;20213;-79
2022/01/26 11:45:02;;;;;;;14.57;6.00;;;4.50;99.90;;;;;;9977548;29;20286;-80
2022/01/26 11:48:24;;;;;;;7.77;3.23;;;4.40;99.90;;;;;;9965782;29;20233;-80
2022/01/26 11:53:46;;;;;;;6.83;2.77;;;4.50;99.90;;;;;;9965437;29;20241;-80
2022/01/26 11:59:29;;;;;;;5.27;2.50;;;4.60;99.90;;;;;;9981829;29;20218;-80
2022/01/26 12:05:09;;;;;;;4.70;2.57;;;4.60;99.90;;;;;;9962912;29;20254;-81
2022/01/26 12:10:32;;;;;;;9.03;3.90;;;4.60;99.90;;;;;;9976918;29;20435;-80
2022/01/26 12:16:01;;;;;;;9.83;3.10;;;4.60;99.90;;;;;;9989645;29;20295;-81
2022/01/26 12:44:11;;;;;;;3.77;1.60;;;4.60;99.90;;;;;;9966812;29;20226;-81
2022/01/26 12:49:34;;;;;;;3.40;1.50;;;4.50;99.90;;;;;;9965363;29;20247;-84
2022/01/26 12:54:56;;;;;;;2.80;1.93;;;4.40;99.90;;;;;;9965125;29;20404;-81
2022/01/26 13:00:18;;;;;;;1.50;1.20;;;4.50;99.90;;;;;;9963538;29;20398;-82
2022/01/26 13:05:41;;;;;;;2.60;1.60;;;4.50;99.90;;;;;;9982189;29;20236;-83
2022/01/26 13:11:03;;;;;;;1.87;1.20;;;4.40;99.90;;;;;;9967874;29;20228;-81
2022/01/26 13:16:33;;;;;;;5.17;2.50;;;4.40;99.90;;;;;;9964825;29;20256;-82
2022/01/26 13:27:43;;;;;;;3.97;1.97;;;4.30;99.90;;;;;;9950049;29;20234;-81
2022/01/26 13:50:01;;;;;;;2.27;1.80;;;4.10;99.90;;;;;;9885217;30;20405;-78
2022/01/26 14:01:03;;;;;;;4.47;2.30;;;4.20;99.90;;;;;;9869304;30;20219;-81
2022/01/26 14:06:26;;;;;;;9.73;3.90;;;4.30;99.90;;;;;;9847289;30;20272;-83
2022/01/26 14:11:48;;;;;;;3.63;2.50;;;4.20;99.90;;;;;;9828209;30;20272;-81
2022/01/26 14:17:16;;;;;;;7.20;4.03;;;4.10;99.90;;;;;;9821801;29;20230;-79
2022/01/26 14:28:08;;;;;;;2.50;2.10;;;4.10;99.90;;;;;;9962113;29;20232;-81
2022/01/26 14:33:52;;;;;;;4.30;2.23;;;4.00;99.90;;;;;;9981716;29;20207;-80
2022/01/26 15:52:55;;;;;;;5.57;3.33;;;3.70;99.90;;;;;;9982834;29;20227;-81
2022/01/26 16:38:03;;;;;;;3.43;2.40;;;3.50;99.90;;;;;;9867516;30;20230;-79
2022/01/26 18:54:30;;;;;;;8.97;3.93;;;3.00;99.90;;;;;;9953165;29;20220;-80
2022/01/26 18:59:52;;;;;;;9.40;4.53;;;3.10;99.90;;;;;;9952314;29;20213;-79
2022/01/26 19:05:14;;;;;;;7.67;4.33;;;3.00;99.90;;;;;;10034639;29;20521;-79
2022/01/26 19:10:36;;;;;;;6.40;4.20;;;3.10;99.90;;;;;;10006444;29;20206;-79
2022/01/26 19:16:05;;;;;;;5.10;3.40;;;3.10;99.90;;;;;;9981862;29;20230;-79
2022/01/26 19:27:26;;;;;;;5.87;3.60;;;3.20;99.90;;;;;;9879845;30;20295;-79
2022/01/26 19:44:13;;;;;;;6.13;4.03;;;3.30;99.90;;;;;;9882135;30;20208;-78
2022/01/26 19:55:16;;;;;;;5.93;3.40;;;3.30;99.90;;;;;;9916261;30;20568;-79
2022/01/26 20:00:43;;;;;;;5.23;3.13;;;3.30;99.90;;;;;;9906034;29;20281;-79
2022/01/26 20:06:08;;;;;;;3.20;2.73;;;3.20;99.90;;;;;;9970421;29;20316;-79
2022/01/26 20:11:39;;;;;;;3.70;2.87;;;3.30;99.90;;;;;;9984779;29;20257;-79
2022/01/26 20:17:06;;;;;;;10.77;5.07;;;3.30;99.90;;;;;;10007454;29;20210;-79
2022/01/26 20:22:28;;;;;;;10.20;5.43;;;3.30;99.90;;;;;;9994718;29;20437;-79
2022/01/26 20:27:50;;;;;;;17.77;8.10;;;3.40;99.90;;;;;;10007353;29;20233;-79
2022/01/26 20:33:13;;;;;;;28.30;10.40;;;3.50;99.90;;;;;;10008542;29;20556;-80
2022/01/26 20:38:35;;;;;;;23.67;10.60;;;3.60;99.90;;;;;;9981766;29;20210;-79
2022/01/26 20:43:57;;;;;;;27.57;12.00;;;3.70;99.90;;;;;;10006163;29;20205;-80
2022/01/26 20:49:20;;;;;;;29.03;12.87;;;3.70;99.90;;;;;;10008052;29;20233;-79
2022/01/26 20:54:42;;;;;;;29.00;11.57;;;3.80;99.90;;;;;;9956613;29;20206;-79
2022/01/26 21:00:07;;;;;;;37.07;11.63;;;3.90;99.90;;;;;;9968943;29;20268;-79
2022/01/26 21:05:34;;;;;;;29.97;10.97;;;3.90;99.90;;;;;;9942097;29;20325;-79
2022/01/26 21:10:57;;;;;;;23.07;9.63;;;3.90;99.90;;;;;;9964515;29;20437;-79
2022/01/26 21:16:27;;;;;;;26.60;11.30;;;4.00;99.90;;;;;;9992467;29;20233;-80
2022/01/26 21:21:48;;;;;;;26.53;10.60;;;3.90;99.90;;;;;;9980259;29;20214;-79
2022/01/26 21:27:21;;;;;;;27.03;10.77;;;3.90;99.90;;;;;;9993719;29;20237;-79
2022/01/26 21:32:44;;;;;;;22.87;10.57;;;4.00;99.90;;;;;;10016293;29;20221;-78
2022/01/26 21:38:06;;;;;;;22.33;10.33;;;4.00;99.90;;;;;;10012202;29;20274;-79
2022/01/26 21:43:29;;;;;;;19.67;9.80;;;4.00;99.90;;;;;;10010991;29;20200;-79
2022/01/26 21:48:52;;;;;;;29.30;10.73;;;4.00;99.90;;;;;;9997139;29;20236;-79
2022/01/26 21:54:15;;;;;;;34.27;12.90;;;4.00;99.90;;;;;;9961148;29;20255;-79
2022/01/26 21:59:37;;;;;;;32.03;11.33;;;4.00;99.90;;;;;;9956913;29;20229;-78
2022/01/26 22:04:58;;;;;;;32.20;12.10;;;4.10;99.90;;;;;;9970883;29;20243;-79
2022/01/26 22:10:20;;;;;;;29.83;11.13;;;4.00;99.90;;;;;;9984986;29;20211;-80
2022/01/26 22:15:43;;;;;;;19.43;9.53;;;4.00;99.90;;;;;;9978037;29;20202;-79
2022/01/26 22:21:05;;;;;;;19.67;8.30;;;4.00;99.90;;;;;;9991261;29;20214;-79
2022/01/26 22:26:30;;;;;;;14.53;7.77;;;4.00;99.90;;;;;;10005167;29;20412;-79
2022/01/26 22:31:55;;;;;;;17.30;8.70;;;4.00;99.90;;;;;;10004322;29;20205;-80
2022/01/26 22:37:24;;;;;;;25.63;9.10;;;4.00;99.90;;;;;;10003662;29;20212;-79
2022/01/26 22:42:46;;;;;;;22.97;9.87;;;4.10;99.90;;;;;;10005265;29;20240;-79
2022/01/26 22:48:13;;;;;;;20.83;8.73;;;4.00;99.90;;;;;;9976821;29;20300;-81
2022/01/26 22:53:35;;;;;;;19.90;8.90;;;4.10;99.90;;;;;;9965470;29;20218;-79
2022/01/26 22:58:59;;;;;;;16.93;9.03;;;4.00;99.90;;;;;;9965480;29;20213;-79
2022/01/26 23:04:25;;;;;;;20.77;9.50;;;4.10;99.90;;;;;;9957293;29;20269;-79
2022/01/26 23:09:46;;;;;;;16.93;6.97;;;4.10;99.90;;;;;;9951825;29;20247;-79
2022/01/26 23:15:09;;;;;;;14.00;6.73;;;4.10;99.90;;;;;;9979555;29;20218;-79
2022/01/26 23:20:31;;;;;;;17.97;7.30;;;4.10;99.90;;;;;;9965868;29;20267;-78
